sensor_id;sensor_type;location;lat;lon;timestamp;temperature;humidity
3071;DHT22;1546;47.208;9.038;2023-01-01T00:01:57;11.20;99.90
3071;DHT22;1546;47.208;9.038;2023-01-01T00:04:25;11.10;99.90
3071;DHT22;1546;47.208;9.038;2023-01-01T00:06:52;10.90;99.90
3071;DHT22;1546;47.208;9.038;2023-01-01T00:09:19;10.70;99.90
3071;DHT22;1546;47.208;9.038;2023-01-01T00:12:05;10.70;99.90
3071;DHT22;1546;47.208;9.038;2023-01-01T00:14:32;10.60;99.90
3071;DHT22;1546;47.208;9.038;2023-01-01T00:16:59;10.60;99.90
3071;DHT22;1546;47.208;9.038;2023-01-01T00:19:26;10.60;99.90
3071;DHT22;1546;47.208;9.038;2023-01-01T00:21:53;10.40;99.90
3071;DHT22;1546;47.208;9.038;2023-01-01T00:24:20;10.30;99.90
3071;DHT22;1546;47.208;9.038;2023-01-01T00:26:46;10.30;99.90
3071;DHT22;1546;47.208;9.038;2023-01-01T00:29:14;10.20;99.90
3071;DHT22;1546;47.208;9.038;2023-01-01T00:31:41;10.10;99.90
3071;DHT22;1546;47.208;9.038;2023-01-01T00:34:10;10.10;99.90
3071;DHT22;1546;47.208;9.038;2023-01-01T00:36:36;10.00;99.90
3071;DHT22;1546;47.208;9.038;2023-01-01T00:39:03;10.00;99.90
3071;DHT22;1546;47.208;9.038;2023-01-01T00:41:30;10.10;99.90
3071;DHT22;1546;47.208;9.038;2023-01-01T00:43:57;10.10;99.90
3071;DHT22;1546;47.208;9.038;2023-01-01T00:46:25;10.00;99.90
3071;DHT22;1546;47.208;9.038;2023-01-01T00:48:52;9.90;99.90
3071;DHT22;1546;47.208;9.038;2023-01-01T00:51:18;10.00;99.90
3071;DHT22;1546;47.208;9.038;2023-01-01T00:53:46;10.00;99.90
3071;DHT22;1546;47.208;9.038;2023-01-01T00:56:12;10.00;99.90
3071;DHT22;1546;47.208;9.038;2023-01-01T00:58:39;10.20;99.90
3071;DHT22;1546;47.208;9.038;2023-01-01T01:01:06;10.20;99.90
3071;DHT22;1546;47.208;9.038;2023-01-01T01:03:36;10.20;99.90
3071;DHT22;1546;47.208;9.038;2023-01-01T01:06:09;10.20;99.90
3071;DHT22;1546;47.208;9.038;2023-01-01T01:08:39;10.20;99.90
3071;DHT22;1546;47.208;9.038;2023-01-01T01:11:06;10.40;99.90
3071;DHT22;1546;47.208;9.038;2023-01-01T01:13:33;10.70;99.90
3071;DHT22;1546;47.208;9.038;2023-01-01T01:16:06;10.70;99.90
3071;DHT22;1546;47.208;9.038;2023-01-01T01:18:34;10.80;99.90
3071;DHT22;1546;47.208;9.038;2023-01-01T01:21:01;10.90;99.90
3071;DHT22;1546;47.208;9.038;2023-01-01T01:23:28;10.90;99.90
3071;DHT22;1546;47.208;9.038;2023-01-01T01:26:05;10.90;99.90
3071;DHT22;1546;47.208;9.038;2023-01-01T01:28:32;10.70;99.90
3071;DHT22;1546;47.208;9.038;2023-01-01T01:30:59;10.80;99.90
3071;DHT22;1546;47.208;9.038;2023-01-01T01:33:26;10.60;99.90
3071;DHT22;1546;47.208;9.038;2023-01-01T01:35:54;10.40;99.90
3071;DHT22;1546;47.208;9.038;2023-01-01T01:38:21;10.20;99.90
3071;DHT22;1546;47.208;9.038;2023-01-01T01:40:48;10.10;99.90
3071;DHT22;1546;47.208;9.038;2023-01-01T01:43:20;10.10;99.90
3071;DHT22;1546;47.208;9.038;2023-01-01T01:45:50;10.20;99.90
3071;DHT22;1546;47.208;9.038;2023-01-01T01:48:20;10.40;99.90
3071;DHT22;1546;47.208;9.038;2023-01-01T01:50:48;10.40;99.90
3071;DHT22;1546;47.208;9.038;2023-01-01T01:53:20;10.50;99.90
3071;DHT22;1546;47.208;9.038;2023-01-01T01:55:52;10.50;99.90
3071;DHT22;1546;47.208;9.038;2023-01-01T01:58:21;10.60;99.90
3071;DHT22;1546;47.208;9.038;2023-01-01T02:00:49;10.60;99.90
3071;DHT22;1546;47.208;9.038;2023-01-01T02:03:19;10.50;99.90
3071;DHT22;1546;47.208;9.038;2023-01-01T02:05:49;10.40;99.90
3071;DHT22;1546;47.208;9.038;2023-01-01T02:08:17;10.40;99.90
3071;DHT22;1546;47.208;9.038;2023-01-01T02:10:44;10.40;99.90
3071;DHT22;1546;47.208;9.038;2023-01-01T02:13:11;10.40;99.90
3071;DHT22;1546;47.208;9.038;2023-01-01T02:15:43;10.50;99.90
3071;DHT22;1546;47.208;9.038;2023-01-01T02:18:17;10.60;99.90
3071;DHT22;1546;47.208;9.038;2023-01-01T02:20:48;10.50;99.90
3071;DHT22;1546;47.208;9.038;2023-01-01T02:23:37;10.60;99.90
3071;DHT22;1546;47.208;9.038;2023-01-01T02:26:39;10.60;99.90
3071;DHT22;1546;47.208;9.038;2023-01-01T02:29:21;10.70;99.90
3071;DHT22;1546;47.208;9.038;2023-01-01T02:31:57;10.60;99.90
3071;DHT22;1546;47.208;9.038;2023-01-01T02:34:28;10.60;99.90
3071;DHT22;1546;47.208;9.038;2023-01-01T02:36:58;10.50;99.90
3071;DHT22;1546;47.208;9.038;2023-01-01T02:39:28;10.40;99.90
3071;DHT22;1546;47.208;9.038;2023-01-01T02:41:58;10.30;99.90
3071;DHT22;1546;47.208;9.038;2023-01-01T02:44:29;10.30;99.90
3071;DHT22;1546;47.208;9.038;2023-01-01T02:47:09;10.30;99.90
3071;DHT22;1546;47.208;9.038;2023-01-01T02:49:40;10.20;99.90
3071;DHT22;1546;47.208;9.038;2023-01-01T02:52:10;10.00;99.90
3071;DHT22;1546;47.208;9.038;2023-01-01T02:54:49;10.00;99.90
3071;DHT22;1546;47.208;9.038;2023-01-01T02:57:25;10.00;99.90
3071;DHT22;1546;47.208;9.038;2023-01-01T03:00:00;9.90;99.90
3071;DHT22;1546;47.208;9.038;2023-01-01T03:02:55;10.00;99.90
3071;DHT22;1546;47.208;9.038;2023-01-01T03:05:33;10.00;99.90
3071;DHT22;1546;47.208;9.038;2023-01-01T03:08:07;10.10;99.90
3071;DHT22;1546;47.208;9.038;2023-01-01T03:10:41;10.10;99.90
3071;DHT22;1546;47.208;9.038;2023-01-01T03:13:14;9.90;99.90
3071;DHT22;1546;47.208;9.038;2023-01-01T03:15:56;9.90;99.90
3071;DHT22;1546;47.208;9.038;2023-01-01T03:18:28;9.80;99.90
3071;DHT22;1546;47.208;9.038;2023-01-01T03:20:59;9.90;99.90
3071;DHT22;1546;47.208;9.038;2023-01-01T03:23:32;10.20;99.90
3071;DHT22;1546;47.208;9.038;2023-01-01T03:26:06;10.30;99.90
3071;DHT22;1546;47.208;9.038;2023-01-01T03:28:36;10.20;99.90
3071;DHT22;1546;47.208;9.038;2023-01-01T03:31:07;10.10;99.90
3071;DHT22;1546;47.208;9.038;2023-01-01T03:33:38;10.20;99.90
3071;DHT22;1546;47.208;9.038;2023-01-01T03:36:08;10.20;99.90
3071;DHT22;1546;47.208;9.038;2023-01-01T03:38:39;10.10;99.90
3071;DHT22;1546;47.208;9.038;2023-01-01T03:41:11;10.20;99.90
3071;DHT22;1546;47.208;9.038;2023-01-01T03:43:45;10.10;99.90
3071;DHT22;1546;47.208;9.038;2023-01-01T03:46:17;10.00;99.90
3071;DHT22;1546;47.208;9.038;2023-01-01T03:48:46;9.80;99.90
3071;DHT22;1546;47.208;9.038;2023-01-01T03:51:26;9.80;99.90
3071;DHT22;1546;47.208;9.038;2023-01-01T03:54:00;9.80;99.90
3071;DHT22;1546;47.208;9.038;2023-01-01T03:56:34;9.90;99.90
3071;DHT22;1546;47.208;9.038;2023-01-01T03:59:08;9.90;99.90
3071;DHT22;1546;47.208;9.038;2023-01-01T04:01:41;9.90;99.90
3071;DHT22;1546;47.208;9.038;2023-01-01T04:04:11;9.90;99.90
3071;DHT22;1546;47.208;9.038;2023-01-01T04:06:38;9.90;99.90
3071;DHT22;1546;47.208;9.038;2023-01-01T04:09:08;9.90;99.90
3071;DHT22;1546;47.208;9.038;2023-01-01T04:11:40;9.80;99.90
3071;DHT22;1546;47.208;9.038;2023-01-01T04:14:27;9.80;99.90
3071;DHT22;1546;47.208;9.038;2023-01-01T04:16:56;9.80;99.90
3071;DHT22;1546;47.208;9.038;2023-01-01T04:19:23;9.80;99.90
3071;DHT22;1546;47.208;9.038;2023-01-01T04:21:50;9.80;99.90
3071;DHT22;1546;47.208;9.038;2023-01-01T04:24:17;9.80;99.90
3071;DHT22;1546;47.208;9.038;2023-01-01T04:26:44;9.80;99.90
3071;DHT22;1546;47.208;9.038;2023-01-01T04:29:11;9.90;99.90
3071;DHT22;1546;47.208;9.038;2023-01-01T04:31:38;9.90;99.90
3071;DHT22;1546;47.208;9.038;2023-01-01T04:34:06;9.80;99.90
3071;DHT22;1546;47.208;9.038;2023-01-01T04:36:33;9.80;99.90
3071;DHT22;1546;47.208;9.038;2023-01-01T04:39:00;9.80;99.90
3071;DHT22;1546;47.208;9.038;2023-01-01T04:41:27;9.80;99.90
3071;DHT22;1546;47.208;9.038;2023-01-01T04:43:54;9.80;99.90
3071;DHT22;1546;47.208;9.038;2023-01-01T04:46:22;9.80;99.90
3071;DHT22;1546;47.208;9.038;2023-01-01T04:48:49;9.80;99.90
3071;DHT22;1546;47.208;9.038;2023-01-01T04:51:19;9.80;99.90
3071;DHT22;1546;47.208;9.038;2023-01-01T04:53:46;9.80;99.90
3071;DHT22;1546;47.208;9.038;2023-01-01T04:56:15;9.70;99.90
3071;DHT22;1546;47.208;9.038;2023-01-01T04:58:43;9.70;99.90
3071;DHT22;1546;47.208;9.038;2023-01-01T05:01:14;9.80;99.90
3071;DHT22;1546;47.208;9.038;2023-01-01T05:03:42;9.80;99.90
3071;DHT22;1546;47.208;9.038;2023-01-01T05:06:10;9.80;99.90
3071;DHT22;1546;47.208;9.038;2023-01-01T05:08:40;9.90;99.90
3071;DHT22;1546;47.208;9.038;2023-01-01T05:11:09;10.00;99.90
3071;DHT22;1546;47.208;9.038;2023-01-01T05:13:38;10.10;99.90
3071;DHT22;1546;47.208;9.038;2023-01-01T05:16:07;10.00;99.90
3071;DHT22;1546;47.208;9.038;2023-01-01T05:18:35;9.90;99.90
3071;DHT22;1546;47.208;9.038;2023-01-01T05:21:03;9.80;99.90
3071;DHT22;1546;47.208;9.038;2023-01-01T05:23:31;9.80;99.90
3071;DHT22;1546;47.208;9.038;2023-01-01T05:25:59;9.50;99.90
3071;DHT22;1546;47.208;9.038;2023-01-01T05:28:26;9.40;99.90
3071;DHT22;1546;47.208;9.038;2023-01-01T05:30:53;9.50;99.90
3071;DHT22;1546;47.208;9.038;2023-01-01T05:33:20;9.60;99.90
3071;DHT22;1546;47.208;9.038;2023-01-01T05:35:52;9.80;99.90
3071;DHT22;1546;47.208;9.038;2023-01-01T05:38:20;9.80;99.90
3071;DHT22;1546;47.208;9.038;2023-01-01T05:40:46;9.70;99.90
3071;DHT22;1546;47.208;9.038;2023-01-01T05:43:15;9.70;99.90
3071;DHT22;1546;47.208;9.038;2023-01-01T05:45:42;9.50;99.90
3071;DHT22;1546;47.208;9.038;2023-01-01T05:48:09;9.50;99.90
3071;DHT22;1546;47.208;9.038;2023-01-01T05:50:36;9.60;99.90
3071;DHT22;1546;47.208;9.038;2023-01-01T05:53:03;9.70;99.90
3071;DHT22;1546;47.208;9.038;2023-01-01T05:55:30;9.70;99.90
3071;DHT22;1546;47.208;9.038;2023-01-01T05:57:57;9.80;99.90
3071;DHT22;1546;47.208;9.038;2023-01-01T06:00:25;9.90;99.90
3071;DHT22;1546;47.208;9.038;2023-01-01T06:02:52;10.10;99.90
3071;DHT22;1546;47.208;9.038;2023-01-01T06:05:19;10.00;99.90
3071;DHT22;1546;47.208;9.038;2023-01-01T06:07:46;9.80;99.90
3071;DHT22;1546;47.208;9.038;2023-01-01T06:10:13;9.60;99.90
3071;DHT22;1546;47.208;9.038;2023-01-01T06:12:40;9.70;99.90
3071;DHT22;1546;47.208;9.038;2023-01-01T06:15:07;9.70;99.90
3071;DHT22;1546;47.208;9.038;2023-01-01T06:17:36;9.60;99.90
3071;DHT22;1546;47.208;9.038;2023-01-01T06:20:03;9.70;99.90
3071;DHT22;1546;47.208;9.038;2023-01-01T06:22:30;9.60;99.90
3071;DHT22;1546;47.208;9.038;2023-01-01T06:24:57;9.40;99.90
3071;DHT22;1546;47.208;9.038;2023-01-01T06:27:23;9.20;99.90
3071;DHT22;1546;47.208;9.038;2023-01-01T06:29:50;9.10;99.90
3071;DHT22;1546;47.208;9.038;2023-01-01T06:32:17;9.00;99.90
3071;DHT22;1546;47.208;9.038;2023-01-01T06:34:45;9.00;99.90
3071;DHT22;1546;47.208;9.038;2023-01-01T06:37:12;9.00;99.90
3071;DHT22;1546;47.208;9.038;2023-01-01T06:39:39;9.00;99.90
3071;DHT22;1546;47.208;9.038;2023-01-01T06:42:06;8.80;99.90
3071;DHT22;1546;47.208;9.038;2023-01-01T06:44:32;8.70;99.90
3071;DHT22;1546;47.208;9.038;2023-01-01T06:46:59;8.50;99.90
3071;DHT22;1546;47.208;9.038;2023-01-01T06:49:26;8.40;99.90
3071;DHT22;1546;47.208;9.038;2023-01-01T06:51:54;8.50;99.90
3071;DHT22;1546;47.208;9.038;2023-01-01T06:54:21;8.60;99.90
3071;DHT22;1546;47.208;9.038;2023-01-01T06:56:48;8.70;99.90
3071;DHT22;1546;47.208;9.038;2023-01-01T06:59:15;8.90;99.90
3071;DHT22;1546;47.208;9.038;2023-01-01T07:01:42;9.00;99.90
3071;DHT22;1546;47.208;9.038;2023-01-01T07:04:10;9.20;99.90
3071;DHT22;1546;47.208;9.038;2023-01-01T07:06:38;9.40;99.90
3071;DHT22;1546;47.208;9.038;2023-01-01T07:09:07;9.40;99.90
3071;DHT22;1546;47.208;9.038;2023-01-01T07:11:34;9.20;99.90
3071;DHT22;1546;47.208;9.038;2023-01-01T07:14:01;9.20;99.90
3071;DHT22;1546;47.208;9.038;2023-01-01T07:16:28;9.30;99.90
3071;DHT22;1546;47.208;9.038;2023-01-01T07:18:55;9.40;99.90
3071;DHT22;1546;47.208;9.038;2023-01-01T07:21:28;9.50;99.90
3071;DHT22;1546;47.208;9.038;2023-01-01T07:23:55;9.50;99.90
3071;DHT22;1546;47.208;9.038;2023-01-01T07:26:24;9.50;99.90
3071;DHT22;1546;47.208;9.038;2023-01-01T07:28:51;9.40;99.90
3071;DHT22;1546;47.208;9.038;2023-01-01T07:31:18;9.40;99.90
3071;DHT22;1546;47.208;9.038;2023-01-01T07:33:45;9.40;99.90
3071;DHT22;1546;47.208;9.038;2023-01-01T07:36:12;9.60;99.90
3071;DHT22;1546;47.208;9.038;2023-01-01T07:38:39;9.70;99.90
3071;DHT22;1546;47.208;9.038;2023-01-01T07:41:06;9.60;99.90
3071;DHT22;1546;47.208;9.038;2023-01-01T07:43:34;9.40;99.90
3071;DHT22;1546;47.208;9.038;2023-01-01T07:46:02;9.50;99.90
3071;DHT22;1546;47.208;9.038;2023-01-01T07:48:29;9.60;99.90
3071;DHT22;1546;47.208;9.038;2023-01-01T07:50:56;9.70;99.90
3071;DHT22;1546;47.208;9.038;2023-01-01T07:53:23;9.70;99.90
3071;DHT22;1546;47.208;9.038;2023-01-01T07:55:50;9.50;99.90
3071;DHT22;1546;47.208;9.038;2023-01-01T07:58:17;9.50;99.90
3071;DHT22;1546;47.208;9.038;2023-01-01T08:00:46;9.70;99.90
3071;DHT22;1546;47.208;9.038;2023-01-01T08:03:13;9.80;99.90
3071;DHT22;1546;47.208;9.038;2023-01-01T08:05:40;9.90;99.90
3071;DHT22;1546;47.208;9.038;2023-01-01T08:08:08;9.90;99.90
3071;DHT22;1546;47.208;9.038;2023-01-01T08:10:36;9.80;99.90
3071;DHT22;1546;47.208;9.038;2023-01-01T08:13:05;10.00;99.90
3071;DHT22;1546;47.208;9.038;2023-01-01T08:15:32;10.00;99.90
3071;DHT22;1546;47.208;9.038;2023-01-01T08:18:03;9.80;99.90
3071;DHT22;1546;47.208;9.038;2023-01-01T08:20:31;9.80;99.90
3071;DHT22;1546;47.208;9.038;2023-01-01T08:22:58;9.80;99.90
3071;DHT22;1546;47.208;9.038;2023-01-01T08:25:24;9.90;99.90
3071;DHT22;1546;47.208;9.038;2023-01-01T08:27:51;9.80;99.90
3071;DHT22;1546;47.208;9.038;2023-01-01T08:30:18;9.70;99.90
3071;DHT22;1546;47.208;9.038;2023-01-01T08:32:45;9.70;99.90
3071;DHT22;1546;47.208;9.038;2023-01-01T08:35:13;9.70;99.90
3071;DHT22;1546;47.208;9.038;2023-01-01T08:37:40;9.80;99.90
3071;DHT22;1546;47.208;9.038;2023-01-01T08:40:10;9.80;99.90
3071;DHT22;1546;47.208;9.038;2023-01-01T08:42:37;9.80;99.90
3071;DHT22;1546;47.208;9.038;2023-01-01T08:45:05;9.80;99.90
3071;DHT22;1546;47.208;9.038;2023-01-01T08:47:32;10.00;99.90
3071;DHT22;1546;47.208;9.038;2023-01-01T08:49:59;10.10;99.90
3071;DHT22;1546;47.208;9.038;2023-01-01T08:52:27;10.10;99.90
3071;DHT22;1546;47.208;9.038;2023-01-01T08:54:54;10.10;99.90
3071;DHT22;1546;47.208;9.038;2023-01-01T08:57:21;10.40;99.90
3071;DHT22;1546;47.208;9.038;2023-01-01T08:59:48;10.50;99.90
3071;DHT22;1546;47.208;9.038;2023-01-01T09:02:14;10.60;99.90
3071;DHT22;1546;47.208;9.038;2023-01-01T09:04:41;10.70;99.90
3071;DHT22;1546;47.208;9.038;2023-01-01T09:07:08;10.90;99.90
3071;DHT22;1546;47.208;9.038;2023-01-01T09:09:36;11.00;99.90
3071;DHT22;1546;47.208;9.038;2023-01-01T09:12:04;11.00;99.90
3071;DHT22;1546;47.208;9.038;2023-01-01T09:14:34;11.00;99.90
3071;DHT22;1546;47.208;9.038;2023-01-01T09:17:01;11.20;99.90
3071;DHT22;1546;47.208;9.038;2023-01-01T09:19:28;11.30;99.90
3071;DHT22;1546;47.208;9.038;2023-01-01T09:21:55;11.40;99.90
3071;DHT22;1546;47.208;9.038;2023-01-01T09:24:23;11.50;99.90
3071;DHT22;1546;47.208;9.038;2023-01-01T09:26:51;11.50;99.90
3071;DHT22;1546;47.208;9.038;2023-01-01T09:29:18;11.60;99.90
3071;DHT22;1546;47.208;9.038;2023-01-01T09:31:46;11.50;99.90
3071;DHT22;1546;47.208;9.038;2023-01-01T09:34:13;11.40;99.90
3071;DHT22;1546;47.208;9.038;2023-01-01T09:36:41;11.50;99.90
3071;DHT22;1546;47.208;9.038;2023-01-01T09:39:10;11.60;99.90
3071;DHT22;1546;47.208;9.038;2023-01-01T09:41:56;11.60;99.90
3071;DHT22;1546;47.208;9.038;2023-01-01T09:44:37;11.70;99.90
3071;DHT22;1546;47.208;9.038;2023-01-01T09:47:17;11.80;99.90
3071;DHT22;1546;47.208;9.038;2023-01-01T09:49:47;12.00;99.90
3071;DHT22;1546;47.208;9.038;2023-01-01T09:52:16;12.30;99.90
3071;DHT22;1546;47.208;9.038;2023-01-01T09:54:49;12.20;99.90
3071;DHT22;1546;47.208;9.038;2023-01-01T09:57:27;12.10;99.90
3071;DHT22;1546;47.208;9.038;2023-01-01T09:59:55;11.90;99.90
3071;DHT22;1546;47.208;9.038;2023-01-01T10:02:36;11.70;99.90
3071;DHT22;1546;47.208;9.038;2023-01-01T10:05:14;11.60;99.90
3071;DHT22;1546;47.208;9.038;2023-01-01T10:07:49;11.60;99.90
3071;DHT22;1546;47.208;9.038;2023-01-01T10:10:27;11.90;99.90
3071;DHT22;1546;47.208;9.038;2023-01-01T10:13:06;12.20;99.90
3071;DHT22;1546;47.208;9.038;2023-01-01T10:15:38;12.40;99.90
3071;DHT22;1546;47.208;9.038;2023-01-01T10:18:12;12.70;99.90
3071;DHT22;1546;47.208;9.038;2023-01-01T10:20:46;13.10;99.90
3071;DHT22;1546;47.208;9.038;2023-01-01T10:23:20;13.50;99.90
3071;DHT22;1546;47.208;9.038;2023-01-01T10:25:49;13.80;99.90
3071;DHT22;1546;47.208;9.038;2023-01-01T10:28:21;13.80;99.90
3071;DHT22;1546;47.208;9.038;2023-01-01T10:30:52;13.90;99.90
3071;DHT22;1546;47.208;9.038;2023-01-01T10:33:21;14.40;99.90
3071;DHT22;1546;47.208;9.038;2023-01-01T10:35:49;14.50;99.80
3071;DHT22;1546;47.208;9.038;2023-01-01T10:40:48;15.40;98.50
3071;DHT22;1546;47.208;9.038;2023-01-01T10:43:17;16.00;99.00
3071;DHT22;1546;47.208;9.038;2023-01-01T10:45:47;16.20;97.40
3071;DHT22;1546;47.208;9.038;2023-01-01T10:48:18;16.30;96.80
3071;DHT22;1546;47.208;9.038;2023-01-01T10:50:48;16.10;96.60
3071;DHT22;1546;47.208;9.038;2023-01-01T10:53:34;16.00;96.40
3071;DHT22;1546;47.208;9.038;2023-01-01T10:56:05;16.00;96.20
3071;DHT22;1546;47.208;9.038;2023-01-01T10:58:36;15.90;96.20
3071;DHT22;1546;47.208;9.038;2023-01-01T11:01:05;15.80;96.20
3071;DHT22;1546;47.208;9.038;2023-01-01T11:03:33;15.80;96.50
3071;DHT22;1546;47.208;9.038;2023-01-01T11:06:17;15.80;96.30
3071;DHT22;1546;47.208;9.038;2023-01-01T11:08:47;15.90;96.40
3071;DHT22;1546;47.208;9.038;2023-01-01T11:11:20;16.20;95.80
3071;DHT22;1546;47.208;9.038;2023-01-01T11:13:54;16.50;95.80
3071;DHT22;1546;47.208;9.038;2023-01-01T11:18:49;17.20;95.60
3071;DHT22;1546;47.208;9.038;2023-01-01T11:21:21;17.70;95.50
3071;DHT22;1546;47.208;9.038;2023-01-01T11:23:50;18.10;94.90
3071;DHT22;1546;47.208;9.038;2023-01-01T11:26:22;18.50;96.30
3071;DHT22;1546;47.208;9.038;2023-01-01T11:29:02;18.90;95.70
3071;DHT22;1546;47.208;9.038;2023-01-01T11:31:34;19.10;94.60
3071;DHT22;1546;47.208;9.038;2023-01-01T11:34:02;19.40;94.40
3071;DHT22;1546;47.208;9.038;2023-01-01T11:36:31;19.90;94.10
3071;DHT22;1546;47.208;9.038;2023-01-01T11:39:13;20.20;93.10
3071;DHT22;1546;47.208;9.038;2023-01-01T11:41:43;20.40;91.90
3071;DHT22;1546;47.208;9.038;2023-01-01T11:44:21;20.60;90.90
3071;DHT22;1546;47.208;9.038;2023-01-01T11:46:49;20.70;91.10
3071;DHT22;1546;47.208;9.038;2023-01-01T11:49:20;21.00;90.30
3071;DHT22;1546;47.208;9.038;2023-01-01T11:54:24;21.80;86.30
3071;DHT22;1546;47.208;9.038;2023-01-01T11:56:53;22.20;85.00
3071;DHT22;1546;47.208;9.038;2023-01-01T11:59:25;22.30;82.40
3071;DHT22;1546;47.208;9.038;2023-01-01T12:01:57;22.40;81.60
3071;DHT22;1546;47.208;9.038;2023-01-01T12:04:28;22.70;80.10
3071;DHT22;1546;47.208;9.038;2023-01-01T12:12:01;24.00;74.80
3071;DHT22;1546;47.208;9.038;2023-01-01T12:14:36;24.40;75.80
3071;DHT22;1546;47.208;9.038;2023-01-01T12:17:11;24.80;73.30
3071;DHT22;1546;47.208;9.038;2023-01-01T12:19:47;25.00;70.50
3071;DHT22;1546;47.208;9.038;2023-01-01T12:22:17;24.90;70.10
3071;DHT22;1546;47.208;9.038;2023-01-01T12:24:45;25.10;69.40
3071;DHT22;1546;47.208;9.038;2023-01-01T12:27:17;25.10;68.10
3071;DHT22;1546;47.208;9.038;2023-01-01T12:30:00;25.00;66.40
3071;DHT22;1546;47.208;9.038;2023-01-01T12:32:43;24.80;67.50
3071;DHT22;1546;47.208;9.038;2023-01-01T12:35:20;25.20;67.90
3071;DHT22;1546;47.208;9.038;2023-01-01T12:38:00;25.00;65.20
3071;DHT22;1546;47.208;9.038;2023-01-01T12:40:37;24.20;68.10
3071;DHT22;1546;47.208;9.038;2023-01-01T12:43:07;24.20;68.00
3071;DHT22;1546;47.208;9.038;2023-01-01T12:46:11;24.20;69.60
3071;DHT22;1546;47.208;9.038;2023-01-01T12:48:59;24.80;69.30
3071;DHT22;1546;47.208;9.038;2023-01-01T12:51:36;24.80;66.90
3071;DHT22;1546;47.208;9.038;2023-01-01T12:54:28;24.10;67.50
3071;DHT22;1546;47.208;9.038;2023-01-01T12:57:00;23.30;69.60
3071;DHT22;1546;47.208;9.038;2023-01-01T12:59:31;23.20;70.00
3071;DHT22;1546;47.208;9.038;2023-01-01T13:02:02;23.40;71.00
3071;DHT22;1546;47.208;9.038;2023-01-01T13:04:37;23.40;71.40
3071;DHT22;1546;47.208;9.038;2023-01-01T13:07:08;24.00;70.70
3071;DHT22;1546;47.208;9.038;2023-01-01T13:09:38;23.80;70.90
3071;DHT22;1546;47.208;9.038;2023-01-01T13:12:09;23.90;70.30
3071;DHT22;1546;47.208;9.038;2023-01-01T13:14:37;23.90;70.40
3071;DHT22;1546;47.208;9.038;2023-01-01T13:17:17;24.20;71.10
3071;DHT22;1546;47.208;9.038;2023-01-01T13:19:45;24.40;70.20
3071;DHT22;1546;47.208;9.038;2023-01-01T13:22:37;24.70;70.30
3071;DHT22;1546;47.208;9.038;2023-01-01T13:25:18;24.80;69.90
3071;DHT22;1546;47.208;9.038;2023-01-01T13:28:01;24.40;66.50
3071;DHT22;1546;47.208;9.038;2023-01-01T13:30:47;23.60;67.90
3071;DHT22;1546;47.208;9.038;2023-01-01T13:33:21;23.40;68.30
3071;DHT22;1546;47.208;9.038;2023-01-01T13:36:29;23.70;68.90
3071;DHT22;1546;47.208;9.038;2023-01-01T13:38:57;24.30;68.50
3071;DHT22;1546;47.208;9.038;2023-01-01T13:41:32;24.40;68.20
3071;DHT22;1546;47.208;9.038;2023-01-01T13:44:25;24.20;66.50
3071;DHT22;1546;47.208;9.038;2023-01-01T13:47:12;23.50;67.60
3071;DHT22;1546;47.208;9.038;2023-01-01T13:50:00;23.10;68.40
3071;DHT22;1546;47.208;9.038;2023-01-01T13:55:38;22.60;70.60
3071;DHT22;1546;47.208;9.038;2023-01-01T13:58:35;22.70;70.60
3071;DHT22;1546;47.208;9.038;2023-01-01T14:04:11;22.90;68.00
3071;DHT22;1546;47.208;9.038;2023-01-01T14:06:43;22.80;71.00
3071;DHT22;1546;47.208;9.038;2023-01-01T14:09:15;22.90;71.20
3071;DHT22;1546;47.208;9.038;2023-01-01T14:11:42;23.20;70.40
3071;DHT22;1546;47.208;9.038;2023-01-01T14:14:23;23.30;68.90
3071;DHT22;1546;47.208;9.038;2023-01-01T14:16:54;22.70;70.10
3071;DHT22;1546;47.208;9.038;2023-01-01T14:19:23;21.90;71.30
3071;DHT22;1546;47.208;9.038;2023-01-01T14:21:52;21.90;69.90
3071;DHT22;1546;47.208;9.038;2023-01-01T14:24:21;22.40;72.40
3071;DHT22;1546;47.208;9.038;2023-01-01T14:26:48;22.00;72.40
3071;DHT22;1546;47.208;9.038;2023-01-01T14:29:18;21.40;79.10
3071;DHT22;1546;47.208;9.038;2023-01-01T14:31:47;20.60;87.00
3071;DHT22;1546;47.208;9.038;2023-01-01T14:34:15;20.20;83.80
3071;DHT22;1546;47.208;9.038;2023-01-01T14:36:52;19.30;81.90
3071;DHT22;1546;47.208;9.038;2023-01-01T14:39:29;18.30;81.10
3071;DHT22;1546;47.208;9.038;2023-01-01T14:41:59;17.60;83.80
3071;DHT22;1546;47.208;9.038;2023-01-01T14:44:29;17.40;84.80
3071;DHT22;1546;47.208;9.038;2023-01-01T14:46:58;17.20;86.70
3071;DHT22;1546;47.208;9.038;2023-01-01T14:49:27;16.80;87.90
3071;DHT22;1546;47.208;9.038;2023-01-01T14:52:00;16.70;89.60
3071;DHT22;1546;47.208;9.038;2023-01-01T14:54:31;16.80;92.80
3071;DHT22;1546;47.208;9.038;2023-01-01T14:56:59;16.90;88.90
3071;DHT22;1546;47.208;9.038;2023-01-01T14:59:28;16.90;89.70
3071;DHT22;1546;47.208;9.038;2023-01-01T15:02:00;16.70;90.20
3071;DHT22;1546;47.208;9.038;2023-01-01T15:04:28;16.40;90.60
3071;DHT22;1546;47.208;9.038;2023-01-01T15:06:57;15.90;91.10
3071;DHT22;1546;47.208;9.038;2023-01-01T15:09:33;15.50;91.70
3071;DHT22;1546;47.208;9.038;2023-01-01T15:12:01;14.90;92.50
3071;DHT22;1546;47.208;9.038;2023-01-01T15:14:29;14.50;93.10
3071;DHT22;1546;47.208;9.038;2023-01-01T15:17:01;14.10;93.90
3071;DHT22;1546;47.208;9.038;2023-01-01T15:19:28;13.80;95.00
3071;DHT22;1546;47.208;9.038;2023-01-01T15:21:56;13.50;95.60
3071;DHT22;1546;47.208;9.038;2023-01-01T15:24:24;13.30;96.30
3071;DHT22;1546;47.208;9.038;2023-01-01T15:26:55;13.00;97.30
3071;DHT22;1546;47.208;9.038;2023-01-01T15:29:29;12.80;97.90
3071;DHT22;1546;47.208;9.038;2023-01-01T15:31:58;12.80;98.00
3071;DHT22;1546;47.208;9.038;2023-01-01T15:34:29;12.90;98.30
3071;DHT22;1546;47.208;9.038;2023-01-01T15:37:07;12.80;98.50
3071;DHT22;1546;47.208;9.038;2023-01-01T15:39:45;12.70;98.70
3071;DHT22;1546;47.208;9.038;2023-01-01T15:42:32;12.70;99.10
3071;DHT22;1546;47.208;9.038;2023-01-01T15:45:20;12.70;98.90
3071;DHT22;1546;47.208;9.038;2023-01-01T15:47:48;12.60;99.10
3071;DHT22;1546;47.208;9.038;2023-01-01T15:50:20;12.60;99.10
3071;DHT22;1546;47.208;9.038;2023-01-01T15:52:51;12.50;98.80
3071;DHT22;1546;47.208;9.038;2023-01-01T15:55:20;12.60;98.50
3071;DHT22;1546;47.208;9.038;2023-01-01T15:57:48;12.60;98.20
3071;DHT22;1546;47.208;9.038;2023-01-01T16:00:19;12.80;97.50
3071;DHT22;1546;47.208;9.038;2023-01-01T16:02:47;12.90;97.20
3071;DHT22;1546;47.208;9.038;2023-01-01T16:05:18;13.00;97.50
3071;DHT22;1546;47.208;9.038;2023-01-01T16:07:46;12.80;98.10
3071;DHT22;1546;47.208;9.038;2023-01-01T16:10:16;12.50;98.20
3071;DHT22;1546;47.208;9.038;2023-01-01T16:12:43;12.30;98.90
3071;DHT22;1546;47.208;9.038;2023-01-01T16:15:13;12.10;99.30
3071;DHT22;1546;47.208;9.038;2023-01-01T16:17:41;12.00;99.30
3071;DHT22;1546;47.208;9.038;2023-01-01T16:20:12;12.10;99.00
3071;DHT22;1546;47.208;9.038;2023-01-01T16:22:40;12.00;99.10
3071;DHT22;1546;47.208;9.038;2023-01-01T16:25:14;12.00;98.90
3071;DHT22;1546;47.208;9.038;2023-01-01T16:27:41;12.00;98.50
3071;DHT22;1546;47.208;9.038;2023-01-01T16:30:09;12.10;98.40
3071;DHT22;1546;47.208;9.038;2023-01-01T16:32:36;12.10;98.10
3071;DHT22;1546;47.208;9.038;2023-01-01T16:35:03;12.10;98.00
3071;DHT22;1546;47.208;9.038;2023-01-01T16:37:30;12.10;98.00
3071;DHT22;1546;47.208;9.038;2023-01-01T16:39:57;11.80;98.90
3071;DHT22;1546;47.208;9.038;2023-01-01T16:42:26;11.70;99.10
3071;DHT22;1546;47.208;9.038;2023-01-01T16:44:53;11.50;99.60
3071;DHT22;1546;47.208;9.038;2023-01-01T16:47:20;11.40;99.90
3071;DHT22;1546;47.208;9.038;2023-01-01T16:49:47;11.50;99.90